sensor_id;sensor_type;location;lat;lon;timestamp;pressure;altitude;pressure_sealevel;temperature;humidity
75298;BME280;63896;45.990;18.688;2023-12-20T00:02:10;100862.94;;;-0.76;100.00
75298;BME280;63896;45.990;18.688;2023-12-20T00:05:13;100855.50;;;-0.90;100.00
75298;BME280;63896;45.990;18.688;2023-12-20T00:08:16;100846.66;;;-0.99;100.00
75298;BME280;63896;45.990;18.688;2023-12-20T00:11:19;100844.88;;;-0.98;100.00
75298;BME280;63896;45.990;18.688;2023-12-20T00:14:22;100839.78;;;-1.00;100.00
75298;BME280;63896;45.990;18.688;2023-12-20T00:17:25;100841.72;;;-1.02;100.00
75298;BME280;63896;45.990;18.688;2023-12-20T00:20:28;100848.88;;;-1.15;100.00
75298;BME280;63896;45.990;18.688;2023-12-20T00:23:32;100841.41;;;-1.29;100.00
75298;BME280;63896;45.990;18.688;2023-12-20T00:26:34;100839.25;;;-1.24;100.00
75298;BME280;63896;45.990;18.688;2023-12-20T00:29:37;100830.47;;;-1.23;100.00
75298;BME280;63896;45.990;18.688;2023-12-20T00:32:40;100830.19;;;-1.29;100.00
75298;BME280;63896;45.990;18.688;2023-12-20T00:35:48;100822.94;;;-1.26;100.00
75298;BME280;63896;45.990;18.688;2023-12-20T00:38:51;100822.47;;;-1.31;100.00
75298;BME280;63896;45.990;18.688;2023-12-20T00:41:54;100821.91;;;-1.34;100.00
75298;BME280;63896;45.990;18.688;2023-12-20T00:44:58;100815.19;;;-1.37;100.00
75298;BME280;63896;45.990;18.688;2023-12-20T00:48:01;100816.50;;;-1.42;100.00
75298;BME280;63896;45.990;18.688;2023-12-20T00:51:03;100807.25;;;-1.56;100.00
75298;BME280;63896;45.990;18.688;2023-12-20T00:54:06;100800.91;;;-1.63;100.00
75298;BME280;63896;45.990;18.688;2023-12-20T00:57:09;100803.56;;;-1.74;100.00
75298;BME280;63896;45.990;18.688;2023-12-20T01:00:12;100794.41;;;-1.89;100.00
75298;BME280;63896;45.990;18.688;2023-12-20T01:03:15;100783.19;;;-1.90;100.00
75298;BME280;63896;45.990;18.688;2023-12-20T01:06:18;100781.84;;;-1.84;100.00
75298;BME280;63896;45.990;18.688;2023-12-20T01:09:21;100783.75;;;-1.86;100.00
75298;BME280;63896;45.990;18.688;2023-12-20T01:12:28;100778.97;;;-2.02;100.00
75298;BME280;63896;45.990;18.688;2023-12-20T01:15:31;100777.22;;;-2.02;100.00
75298;BME280;63896;45.990;18.688;2023-12-20T01:18:33;100764.06;;;-2.00;100.00
75298;BME280;63896;45.990;18.688;2023-12-20T01:21:36;100763.97;;;-1.99;100.00
75298;BME280;63896;45.990;18.688;2023-12-20T01:24:39;100764.53;;;-1.95;100.00
75298;BME280;63896;45.990;18.688;2023-12-20T01:27:42;100763.44;;;-2.13;100.00
75298;BME280;63896;45.990;18.688;2023-12-20T01:30:45;100756.22;;;-2.10;100.00
75298;BME280;63896;45.990;18.688;2023-12-20T01:33:48;100760.47;;;-2.20;100.00
75298;BME280;63896;45.990;18.688;2023-12-20T01:36:51;100752.19;;;-2.14;100.00
75298;BME280;63896;45.990;18.688;2023-12-20T01:39:54;100747.59;;;-2.10;100.00
75298;BME280;63896;45.990;18.688;2023-12-20T01:43:01;100731.88;;;-2.09;100.00
75298;BME280;63896;45.990;18.688;2023-12-20T01:46:04;100726.28;;;-2.04;100.00
75298;BME280;63896;45.990;18.688;2023-12-20T01:49:08;100724.69;;;-2.16;100.00
75298;BME280;63896;45.990;18.688;2023-12-20T01:52:11;100720.56;;;-2.19;100.00
75298;BME280;63896;45.990;18.688;2023-12-20T01:55:14;100714.41;;;-2.18;100.00
75298;BME280;63896;45.990;18.688;2023-12-20T01:58:18;100712.59;;;-2.06;100.00
75298;BME280;63896;45.990;18.688;2023-12-20T02:01:21;100711.19;;;-2.10;100.00
75298;BME280;63896;45.990;18.688;2023-12-20T02:04:25;100700.53;;;-2.07;100.00
75298;BME280;63896;45.990;18.688;2023-12-20T02:07:29;100696.75;;;-2.03;100.00
75298;BME280;63896;45.990;18.688;2023-12-20T02:10:34;100700.63;;;-1.98;100.00
75298;BME280;63896;45.990;18.688;2023-12-20T02:13:39;100688.97;;;-1.82;100.00
75298;BME280;63896;45.990;18.688;2023-12-20T02:16:42;100689.78;;;-1.82;100.00
75298;BME280;63896;45.990;18.688;2023-12-20T02:19:45;100686.16;;;-1.90;100.00
75298;BME280;63896;45.990;18.688;2023-12-20T02:22:48;100674.94;;;-1.91;100.00
75298;BME280;63896;45.990;18.688;2023-12-20T02:25:50;100666.84;;;-1.98;100.00
75298;BME280;63896;45.990;18.688;2023-12-20T02:28:54;100670.25;;;-1.97;100.00
75298;BME280;63896;45.990;18.688;2023-12-20T02:31:57;100658.97;;;-1.86;100.00
75298;BME280;63896;45.990;18.688;2023-12-20T02:35:00;100658.31;;;-1.79;100.00
75298;BME280;63896;45.990;18.688;2023-12-20T02:38:03;100661.59;;;-1.77;100.00
75298;BME280;63896;45.990;18.688;2023-12-20T02:41:05;100653.72;;;-1.66;100.00
75298;BME280;63896;45.990;18.688;2023-12-20T02:44:08;100651.13;;;-1.66;100.00
75298;BME280;63896;45.990;18.688;2023-12-20T02:47:11;100641.72;;;-1.57;100.00
75298;BME280;63896;45.990;18.688;2023-12-20T02:50:14;100637.47;;;-1.58;100.00
75298;BME280;63896;45.990;18.688;2023-12-20T02:53:16;100637.34;;;-1.57;100.00
75298;BME280;63896;45.990;18.688;2023-12-20T02:56:19;100631.47;;;-1.59;100.00
75298;BME280;63896;45.990;18.688;2023-12-20T02:59:22;100621.75;;;-1.57;100.00
75298;BME280;63896;45.990;18.688;2023-12-20T03:02:24;100629.28;;;-1.54;100.00
75298;BME280;63896;45.990;18.688;2023-12-20T03:05:27;100628.38;;;-1.43;100.00
75298;BME280;63896;45.990;18.688;2023-12-20T03:08:30;100623.00;;;-1.51;100.00
75298;BME280;63896;45.990;18.688;2023-12-20T03:11:33;100626.81;;;-1.55;100.00
75298;BME280;63896;45.990;18.688;2023-12-20T03:14:36;100623.25;;;-1.54;100.00
75298;BME280;63896;45.990;18.688;2023-12-20T03:17:38;100612.72;;;-1.53;100.00
75298;BME280;63896;45.990;18.688;2023-12-20T03:20:41;100608.47;;;-1.54;100.00
75298;BME280;63896;45.990;18.688;2023-12-20T03:23:45;100603.63;;;-1.68;100.00
75298;BME280;63896;45.990;18.688;2023-12-20T03:26:47;100598.34;;;-1.87;100.00
75298;BME280;63896;45.990;18.688;2023-12-20T03:29:50;100596.41;;;-1.85;100.00
75298;BME280;63896;45.990;18.688;2023-12-20T03:32:53;100594.16;;;-1.78;100.00
75298;BME280;63896;45.990;18.688;2023-12-20T03:35:55;100602.06;;;-1.80;100.00
75298;BME280;63896;45.990;18.688;2023-12-20T03:38:58;100596.19;;;-1.82;100.00
75298;BME280;63896;45.990;18.688;2023-12-20T03:42:01;100592.22;;;-1.76;100.00
75298;BME280;63896;45.990;18.688;2023-12-20T03:45:04;100588.41;;;-1.72;100.00
75298;BME280;63896;45.990;18.688;2023-12-20T03:48:07;100587.97;;;-1.77;100.00
75298;BME280;63896;45.990;18.688;2023-12-20T03:51:10;100576.78;;;-1.68;100.00
75298;BME280;63896;45.990;18.688;2023-12-20T03:54:13;100567.50;;;-1.61;100.00
75298;BME280;63896;45.990;18.688;2023-12-20T03:57:15;100562.69;;;-1.66;100.00
75298;BME280;63896;45.990;18.688;2023-12-20T04:00:18;100566.56;;;-1.90;100.00
75298;BME280;63896;45.990;18.688;2023-12-20T04:03:21;100566.44;;;-1.89;100.00
75298;BME280;63896;45.990;18.688;2023-12-20T04:06:23;100573.47;;;-1.80;100.00
75298;BME280;63896;45.990;18.688;2023-12-20T04:09:26;100566.75;;;-1.82;100.00
75298;BME280;63896;45.990;18.688;2023-12-20T04:12:29;100563.91;;;-1.70;100.00
75298;BME280;63896;45.990;18.688;2023-12-20T04:15:32;100560.25;;;-1.67;100.00
75298;BME280;63896;45.990;18.688;2023-12-20T04:18:35;100557.50;;;-1.66;100.00
75298;BME280;63896;45.990;18.688;2023-12-20T04:21:39;100554.09;;;-1.57;100.00
75298;BME280;63896;45.990;18.688;2023-12-20T04:24:42;100540.97;;;-1.55;100.00
75298;BME280;63896;45.990;18.688;2023-12-20T04:27:45;100549.56;;;-1.64;100.00
75298;BME280;63896;45.990;18.688;2023-12-20T04:30:49;100547.75;;;-1.73;100.00
75298;BME280;63896;45.990;18.688;2023-12-20T04:33:52;100541.59;;;-1.72;100.00
75298;BME280;63896;45.990;18.688;2023-12-20T04:36:54;100548.44;;;-1.71;100.00
75298;BME280;63896;45.990;18.688;2023-12-20T04:39:57;100541.09;;;-1.66;100.00
75298;BME280;63896;45.990;18.688;2023-12-20T04:43:00;100532.06;;;-1.62;100.00
75298;BME280;63896;45.990;18.688;2023-12-20T04:46:03;100535.06;;;-1.67;100.00
75298;BME280;63896;45.990;18.688;2023-12-20T04:49:07;100532.88;;;-1.62;100.00
75298;BME280;63896;45.990;18.688;2023-12-20T04:52:10;100527.81;;;-1.63;100.00
75298;BME280;63896;45.990;18.688;2023-12-20T04:55:13;100523.84;;;-1.67;100.00
75298;BME280;63896;45.990;18.688;2023-12-20T04:58:16;100517.69;;;-1.66;100.00
75298;BME280;63896;45.990;18.688;2023-12-20T05:01:19;100512.03;;;-1.71;100.00
75298;BME280;63896;45.990;18.688;2023-12-20T05:04:23;100531.41;;;-1.55;100.00
75298;BME280;63896;45.990;18.688;2023-12-20T05:07:26;100525.94;;;-1.52;100.00
75298;BME280;63896;45.990;18.688;2023-12-20T05:10:30;100521.28;;;-1.48;100.00
75298;BME280;63896;45.990;18.688;2023-12-20T05:13:33;100520.00;;;-1.63;100.00
75298;BME280;63896;45.990;18.688;2023-12-20T05:16:46;100520.34;;;-1.77;100.00
75298;BME280;63896;45.990;18.688;2023-12-20T05:19:49;100526.53;;;-1.78;100.00
75298;BME280;63896;45.990;18.688;2023-12-20T05:22:51;100530.38;;;-1.73;100.00
75298;BME280;63896;45.990;18.688;2023-12-20T05:25:54;100514.09;;;-1.75;100.00
75298;BME280;63896;45.990;18.688;2023-12-20T05:28:58;100507.94;;;-1.74;100.00
75298;BME280;63896;45.990;18.688;2023-12-20T05:32:00;100509.28;;;-1.70;100.00
75298;BME280;63896;45.990;18.688;2023-12-20T05:35:04;100512.47;;;-1.66;100.00
75298;BME280;63896;45.990;18.688;2023-12-20T05:38:07;100516.16;;;-1.69;100.00
75298;BME280;63896;45.990;18.688;2023-12-20T05:41:10;100515.63;;;-1.63;100.00
75298;BME280;63896;45.990;18.688;2023-12-20T05:44:13;100515.78;;;-1.55;100.00
75298;BME280;63896;45.990;18.688;2023-12-20T05:47:16;100520.84;;;-1.63;100.00
75298;BME280;63896;45.990;18.688;2023-12-20T05:50:19;100511.75;;;-1.78;100.00
75298;BME280;63896;45.990;18.688;2023-12-20T05:53:22;100512.44;;;-1.76;100.00
75298;BME280;63896;45.990;18.688;2023-12-20T05:56:25;100516.03;;;-1.67;100.00
75298;BME280;63896;45.990;18.688;2023-12-20T05:59:28;100519.56;;;-1.68;100.00
75298;BME280;63896;45.990;18.688;2023-12-20T06:02:31;100528.63;;;-1.63;100.00
75298;BME280;63896;45.990;18.688;2023-12-20T06:05:35;100531.53;;;-1.56;100.00
75298;BME280;63896;45.990;18.688;2023-12-20T06:08:38;100527.41;;;-1.59;100.00
75298;BME280;63896;45.990;18.688;2023-12-20T06:11:42;100528.63;;;-1.63;100.00
75298;BME280;63896;45.990;18.688;2023-12-20T06:14:45;100534.00;;;-1.55;100.00
75298;BME280;63896;45.990;18.688;2023-12-20T06:17:48;100539.22;;;-1.55;100.00
75298;BME280;63896;45.990;18.688;2023-12-20T06:20:51;100547.41;;;-1.59;100.00
75298;BME280;63896;45.990;18.688;2023-12-20T06:23:54;100543.59;;;-1.55;100.00
75298;BME280;63896;45.990;18.688;2023-12-20T06:26:57;100541.38;;;-1.50;100.00
75298;BME280;63896;45.990;18.688;2023-12-20T06:30:00;100543.44;;;-1.54;100.00
75298;BME280;63896;45.990;18.688;2023-12-20T06:33:04;100547.13;;;-1.47;100.00
75298;BME280;63896;45.990;18.688;2023-12-20T06:36:07;100543.06;;;-1.39;100.00
75298;BME280;63896;45.990;18.688;2023-12-20T06:39:13;100540.72;;;-1.42;100.00
75298;BME280;63896;45.990;18.688;2023-12-20T06:42:16;100549.22;;;-1.40;100.00
75298;BME280;63896;45.990;18.688;2023-12-20T06:45:19;100557.03;;;-1.40;100.00
75298;BME280;63896;45.990;18.688;2023-12-20T06:48:22;100551.16;;;-1.23;100.00
75298;BME280;63896;45.990;18.688;2023-12-20T06:51:25;100547.75;;;-1.24;100.00
75298;BME280;63896;45.990;18.688;2023-12-20T06:54:28;100545.16;;;-1.24;100.00
75298;BME280;63896;45.990;18.688;2023-12-20T06:57:31;100548.72;;;-1.25;100.00
75298;BME280;63896;45.990;18.688;2023-12-20T07:00:34;100539.41;;;-1.18;100.00
75298;BME280;63896;45.990;18.688;2023-12-20T07:03:38;100539.13;;;-1.15;100.00
75298;BME280;63896;45.990;18.688;2023-12-20T07:06:41;100535.28;;;-1.11;100.00
75298;BME280;63896;45.990;18.688;2023-12-20T07:09:44;100529.25;;;-1.11;100.00
75298;BME280;63896;45.990;18.688;2023-12-20T07:12:47;100527.63;;;-1.22;100.00
75298;BME280;63896;45.990;18.688;2023-12-20T07:15:51;100521.06;;;-1.16;100.00
75298;BME280;63896;45.990;18.688;2023-12-20T07:18:54;100520.38;;;-1.09;100.00
75298;BME280;63896;45.990;18.688;2023-12-20T07:21:59;100512.84;;;-1.02;100.00
75298;BME280;63896;45.990;18.688;2023-12-20T07:25:03;100519.97;;;-1.14;100.00
75298;BME280;63896;45.990;18.688;2023-12-20T07:28:06;100524.19;;;-1.03;100.00
75298;BME280;63896;45.990;18.688;2023-12-20T07:31:09;100527.09;;;-1.06;100.00
75298;BME280;63896;45.990;18.688;2023-12-20T07:34:12;100531.75;;;-0.90;100.00
75298;BME280;63896;45.990;18.688;2023-12-20T07:37:16;100534.31;;;-1.19;100.00
75298;BME280;63896;45.990;18.688;2023-12-20T07:40:19;100532.91;;;-1.42;100.00
75298;BME280;63896;45.990;18.688;2023-12-20T07:43:23;100535.53;;;-1.33;100.00
75298;BME280;63896;45.990;18.688;2023-12-20T07:46:26;100540.31;;;-1.38;100.00
75298;BME280;63896;45.990;18.688;2023-12-20T07:49:30;100545.97;;;-1.33;100.00
75298;BME280;63896;45.990;18.688;2023-12-20T07:52:33;100538.84;;;-1.12;100.00
75298;BME280;63896;45.990;18.688;2023-12-20T07:55:36;100536.81;;;-1.08;100.00
75298;BME280;63896;45.990;18.688;2023-12-20T07:58:39;100542.56;;;-1.14;100.00
75298;BME280;63896;45.990;18.688;2023-12-20T08:01:54;100535.03;;;-0.98;100.00
75298;BME280;63896;45.990;18.688;2023-12-20T08:04:57;100531.31;;;-0.76;100.00
75298;BME280;63896;45.990;18.688;2023-12-20T08:07:59;100536.00;;;-0.99;100.00
75298;BME280;63896;45.990;18.688;2023-12-20T08:11:03;100526.94;;;-0.76;100.00
75298;BME280;63896;45.990;18.688;2023-12-20T08:14:06;100523.09;;;-1.10;100.00
75298;BME280;63896;45.990;18.688;2023-12-20T08:17:08;100531.56;;;-1.27;100.00
75298;BME280;63896;45.990;18.688;2023-12-20T08:20:12;100537.91;;;-0.91;100.00
75298;BME280;63896;45.990;18.688;2023-12-20T08:23:21;100536.69;;;-0.78;100.00
75298;BME280;63896;45.990;18.688;2023-12-20T08:26:28;100539.16;;;-0.86;100.00
75298;BME280;63896;45.990;18.688;2023-12-20T08:29:31;100533.00;;;-0.66;100.00
75298;BME280;63896;45.990;18.688;2023-12-20T08:32:35;100543.50;;;-0.58;100.00
75298;BME280;63896;45.990;18.688;2023-12-20T08:35:39;100540.22;;;-0.69;100.00
75298;BME280;63896;45.990;18.688;2023-12-20T08:38:42;100540.66;;;-0.64;100.00
75298;BME280;63896;45.990;18.688;2023-12-20T08:42:02;100535.81;;;-0.50;100.00
75298;BME280;63896;45.990;18.688;2023-12-20T08:45:06;100530.72;;;-0.41;100.00
75298;BME280;63896;45.990;18.688;2023-12-20T08:48:09;100522.88;;;-0.22;100.00
75298;BME280;63896;45.990;18.688;2023-12-20T08:51:13;100526.59;;;-0.34;100.00
75298;BME280;63896;45.990;18.688;2023-12-20T08:54:16;100527.78;;;-0.10;100.00
75298;BME280;63896;45.990;18.688;2023-12-20T08:57:20;100528.59;;;-0.09;100.00
75298;BME280;63896;45.990;18.688;2023-12-20T09:00:24;100530.38;;;0.00;100.00
75298;BME280;63896;45.990;18.688;2023-12-20T09:03:30;100527.03;;;0.35;100.00
75298;BME280;63896;45.990;18.688;2023-12-20T09:06:33;100526.13;;;0.26;100.00
75298;BME280;63896;45.990;18.688;2023-12-20T09:09:36;100518.97;;;0.28;100.00
75298;BME280;63896;45.990;18.688;2023-12-20T09:12:39;100520.00;;;0.45;100.00
75298;BME280;63896;45.990;18.688;2023-12-20T09:15:43;100520.53;;;0.66;100.00
75298;BME280;63896;45.990;18.688;2023-12-20T09:18:46;100514.13;;;0.61;100.00
75298;BME280;63896;45.990;18.688;2023-12-20T09:21:49;100514.22;;;0.86;100.00
75298;BME280;63896;45.990;18.688;2023-12-20T09:24:53;100516.16;;;1.20;100.00
75298;BME280;63896;45.990;18.688;2023-12-20T09:27:56;100525.78;;;1.02;100.00
75298;BME280;63896;45.990;18.688;2023-12-20T09:31:00;100521.84;;;0.80;100.00
75298;BME280;63896;45.990;18.688;2023-12-20T09:34:03;100509.22;;;0.75;100.00
75298;BME280;63896;45.990;18.688;2023-12-20T09:37:07;100516.09;;;0.76;100.00
75298;BME280;63896;45.990;18.688;2023-12-20T09:40:12;100504.91;;;0.84;100.00
75298;BME280;63896;45.990;18.688;2023-12-20T09:43:19;100493.28;;;0.96;100.00
75298;BME280;63896;45.990;18.688;2023-12-20T09:46:24;100490.84;;;1.20;100.00
75298;BME280;63896;45.990;18.688;2023-12-20T09:49:30;100493.50;;;1.72;100.00
75298;BME280;63896;45.990;18.688;2023-12-20T09:52:34;100486.44;;;1.64;100.00
75298;BME280;63896;45.990;18.688;2023-12-20T09:55:39;100491.34;;;1.67;100.00
75298;BME280;63896;45.990;18.688;2023-12-20T09:58:43;100501.03;;;1.23;100.00
75298;BME280;63896;45.990;18.688;2023-12-20T10:01:48;100492.81;;;1.01;100.00
75298;BME280;63896;45.990;18.688;2023-12-20T10:04:51;100485.91;;;1.61;100.00
75298;BME280;63896;45.990;18.688;2023-12-20T10:07:56;100476.84;;;1.73;100.00
75298;BME280;63896;45.990;18.688;2023-12-20T10:10:59;100479.75;;;1.96;100.00
75298;BME280;63896;45.990;18.688;2023-12-20T10:14:06;100473.13;;;2.17;100.00
75298;BME280;63896;45.990;18.688;2023-12-20T10:17:09;100477.88;;;2.22;100.00
75298;BME280;63896;45.990;18.688;2023-12-20T10:20:13;100473.47;;;2.22;100.00
75298;BME280;63896;45.990;18.688;2023-12-20T10:23:16;100475.16;;;1.98;100.00
75298;BME280;63896;45.990;18.688;2023-12-20T10:26:25;100474.53;;;1.70;100.00
75298;BME280;63896;45.990;18.688;2023-12-20T10:29:28;100488.63;;;2.11;100.00
75298;BME280;63896;45.990;18.688;2023-12-20T10:32:31;100477.75;;;2.23;100.00
75298;BME280;63896;45.990;18.688;2023-12-20T10:35:35;100480.72;;;2.36;100.00
75298;BME280;63896;45.990;18.688;2023-12-20T10:38:39;100482.69;;;2.34;100.00
75298;BME280;63896;45.990;18.688;2023-12-20T10:41:45;100488.69;;;2.93;100.00
75298;BME280;63896;45.990;18.688;2023-12-20T10:44:49;100481.44;;;2.71;100.00
75298;BME280;63896;45.990;18.688;2023-12-20T10:47:54;100484.88;;;2.63;100.00
75298;BME280;63896;45.990;18.688;2023-12-20T10:50:57;100481.72;;;2.52;100.00
75298;BME280;63896;45.990;18.688;2023-12-20T10:54:00;100479.00;;;2.69;100.00
75298;BME280;63896;45.990;18.688;2023-12-20T10:57:06;100483.25;;;2.20;100.00
75298;BME280;63896;45.990;18.688;2023-12-20T11:00:16;100477.63;;;1.99;100.00
75298;BME280;63896;45.990;18.688;2023-12-20T11:03:21;100464.53;;;1.99;100.00
75298;BME280;63896;45.990;18.688;2023-12-20T11:09:43;100447.22;;;2.56;100.00
75298;BME280;63896;45.990;18.688;2023-12-20T11:12:54;100444.75;;;2.63;100.00
75298;BME280;63896;45.990;18.688;2023-12-20T11:16:00;100452.13;;;2.59;100.00
75298;BME280;63896;45.990;18.688;2023-12-20T11:19:07;100457.34;;;2.43;100.00
75298;BME280;63896;45.990;18.688;2023-12-20T11:22:11;100460.00;;;2.75;100.00
75298;BME280;63896;45.990;18.688;2023-12-20T11:25:14;100460.88;;;3.00;100.00
75298;BME280;63896;45.990;18.688;2023-12-20T11:28:21;100453.63;;;3.10;100.00
75298;BME280;63896;45.990;18.688;2023-12-20T11:31:27;100458.06;;;3.02;100.00
75298;BME280;63896;45.990;18.688;2023-12-20T11:34:31;100454.78;;;3.00;100.00
75298;BME280;63896;45.990;18.688;2023-12-20T11:37:36;100459.69;;;2.86;100.00
75298;BME280;63896;45.990;18.688;2023-12-20T11:40:42;100456.91;;;3.36;100.00
75298;BME280;63896;45.990;18.688;2023-12-20T11:43:45;100460.03;;;2.83;100.00
75298;BME280;63896;45.990;18.688;2023-12-20T11:46:48;100452.91;;;3.73;100.00
75298;BME280;63896;45.990;18.688;2023-12-20T11:49:51;100453.97;;;4.33;100.00
75298;BME280;63896;45.990;18.688;2023-12-20T11:52:55;100450.38;;;4.57;100.00
75298;BME280;63896;45.990;18.688;2023-12-20T11:55:58;100442.00;;;3.92;100.00
75298;BME280;63896;45.990;18.688;2023-12-20T11:59:01;100437.06;;;3.97;100.00
75298;BME280;63896;45.990;18.688;2023-12-20T12:02:21;100434.03;;;4.16;100.00
75298;BME280;63896;45.990;18.688;2023-12-20T12:05:26;100445.53;;;4.15;100.00
75298;BME280;63896;45.990;18.688;2023-12-20T12:08:29;100438.66;;;4.37;100.00
75298;BME280;63896;45.990;18.688;2023-12-20T12:11:32;100430.19;;;4.58;100.00
75298;BME280;63896;45.990;18.688;2023-12-20T12:14:35;100417.09;;;4.50;100.00
75298;BME280;63896;45.990;18.688;2023-12-20T12:17:39;100406.72;;;3.95;100.00
75298;BME280;63896;45.990;18.688;2023-12-20T12:20:42;100409.31;;;4.03;100.00
75298;BME280;63896;45.990;18.688;2023-12-20T12:23:45;100408.91;;;4.45;100.00
75298;BME280;63896;45.990;18.688;2023-12-20T12:26:51;100404.44;;;4.53;100.00
75298;BME280;63896;45.990;18.688;2023-12-20T12:30:04;100394.63;;;4.47;100.00
75298;BME280;63896;45.990;18.688;2023-12-20T12:33:10;100398.56;;;4.20;100.00
75298;BME280;63896;45.990;18.688;2023-12-20T12:36:13;100398.13;;;3.78;100.00
75298;BME280;63896;45.990;18.688;2023-12-20T12:39:18;100405.19;;;4.39;100.00
75298;BME280;63896;45.990;18.688;2023-12-20T12:42:21;100410.72;;;4.44;100.00
75298;BME280;63896;45.990;18.688;2023-12-20T12:45:28;100394.69;;;5.81;100.00
75298;BME280;63896;45.990;18.688;2023-12-20T12:48:31;100403.13;;;4.95;100.00
75298;BME280;63896;45.990;18.688;2023-12-20T12:51:34;100409.03;;;4.97;100.00
75298;BME280;63896;45.990;18.688;2023-12-20T12:54:38;100405.63;;;5.11;100.00
75298;BME280;63896;45.990;18.688;2023-12-20T12:57:41;100404.94;;;4.71;100.00
75298;BME280;63896;45.990;18.688;2023-12-20T13:00:44;100408.44;;;4.41;100.00
75298;BME280;63896;45.990;18.688;2023-12-20T13:03:47;100403.22;;;4.10;100.00
75298;BME280;63896;45.990;18.688;2023-12-20T13:06:49;100405.03;;;4.02;100.00
75298;BME280;63896;45.990;18.688;2023-12-20T13:09:52;100407.94;;;4.15;100.00
75298;BME280;63896;45.990;18.688;2023-12-20T13:12:55;100415.34;;;4.11;100.00
75298;BME280;63896;45.990;18.688;2023-12-20T13:15:58;100419.56;;;4.51;100.00
75298;BME280;63896;45.990;18.688;2023-12-20T13:19:01;100412.41;;;5.05;100.00
75298;BME280;63896;45.990;18.688;2023-12-20T13:22:04;100411.47;;;5.65;100.00
75298;BME280;63896;45.990;18.688;2023-12-20T13:25:07;100419.16;;;4.85;100.00
75298;BME280;63896;45.990;18.688;2023-12-20T13:28:10;100422.06;;;4.67;100.00
75298;BME280;63896;45.990;18.688;2023-12-20T13:31:13;100425.97;;;5.17;100.00
75298;BME280;63896;45.990;18.688;2023-12-20T13:34:16;100425.41;;;5.21;100.00
75298;BME280;63896;45.990;18.688;2023-12-20T13:37:20;100434.47;;;4.82;100.00
75298;BME280;63896;45.990;18.688;2023-12-20T13:40:23;100436.81;;;4.46;100.00
75298;BME280;63896;45.990;18.688;2023-12-20T13:43:26;100430.41;;;4.17;100.00
75298;BME280;63896;45.990;18.688;2023-12-20T13:46:29;100434.09;;;4.62;100.00
75298;BME280;63896;45.990;18.688;2023-12-20T13:49:32;100440.72;;;4.27;100.00
75298;BME280;63896;45.990;18.688;2023-12-20T13:52:35;100445.78;;;3.98;100.00
75298;BME280;63896;45.990;18.688;2023-12-20T13:55:41;100443.97;;;3.90;100.00
75298;BME280;63896;45.990;18.688;2023-12-20T13:58:44;100441.81;;;3.47;100.00
75298;BME280;63896;45.990;18.688;2023-12-20T14:01:49;100441.50;;;3.17;100.00
75298;BME280;63896;45.990;18.688;2023-12-20T14:04:53;100445.47;;;2.97;100.00
75298;BME280;63896;45.990;18.688;2023-12-20T14:07:56;100440.88;;;2.91;100.00
75298;BME280;63896;45.990;18.688;2023-12-20T14:11:02;100441.31;;;2.70;100.00
75298;BME280;63896;45.990;18.688;2023-12-20T14:14:05;100442.00;;;2.72;100.00
75298;BME280;63896;45.990;18.688;2023-12-20T14:17:08;100437.72;;;2.55;100.00
75298;BME280;63896;45.990;18.688;2023-12-20T14:20:11;100439.50;;;2.38;100.00
75298;BME280;63896;45.990;18.688;2023-12-20T14:23:18;100444.44;;;2.58;100.00
75298;BME280;63896;45.990;18.688;2023-12-20T14:26:21;100439.88;;;2.68;100.00
75298;BME280;63896;45.990;18.688;2023-12-20T14:29:24;100439.38;;;2.72;100.00
75298;BME280;63896;45.990;18.688;2023-12-20T14:32:28;100451.00;;;2.62;100.00
75298;BME280;63896;45.990;18.688;2023-12-20T14:35:31;100455.53;;;2.35;100.00
75298;BME280;63896;45.990;18.688;2023-12-20T14:38:34;100445.56;;;2.39;100.00
75298;BME280;63896;45.990;18.688;2023-12-20T14:41:37;100442.94;;;2.39;100.00
75298;BME280;63896;45.990;18.688;2023-12-20T14:44:40;100447.06;;;2.00;100.00
75298;BME280;63896;45.990;18.688;2023-12-20T14:47:43;100441.00;;;1.99;100.00
75298;BME280;63896;45.990;18.688;2023-12-20T14:50:47;100453.56;;;1.96;100.00
75298;BME280;63896;45.990;18.688;2023-12-20T14:53:51;100452.44;;;1.98;100.00
75298;BME280;63896;45.990;18.688;2023-12-20T14:56:54;100469.00;;;1.73;100.00
75298;BME280;63896;45.990;18.688;2023-12-20T14:59:56;100458.78;;;1.87;100.00
75298;BME280;63896;45.990;18.688;2023-12-20T15:02:59;100463.44;;;1.76;100.00
75298;BME280;63896;45.990;18.688;2023-12-20T15:06:02;100465.09;;;1.77;100.00
75298;BME280;63896;45.990;18.688;2023-12-20T15:09:05;100462.78;;;1.74;100.00
75298;BME280;63896;45.990;18.688;2023-12-20T15:12:08;100467.81;;;1.67;100.00
75298;BME280;63896;45.990;18.688;2023-12-20T15:15:11;100468.53;;;1.52;100.00
75298;BME280;63896;45.990;18.688;2023-12-20T15:18:14;100471.09;;;1.43;100.00
75298;BME280;63896;45.990;18.688;2023-12-20T15:21:17;100477.00;;;1.46;100.00
75298;BME280;63896;45.990;18.688;2023-12-20T15:24:20;100487.78;;;1.42;100.00
75298;BME280;63896;45.990;18.688;2023-12-20T15:27:32;100484.09;;;1.35;100.00
75298;BME280;63896;45.990;18.688;2023-12-20T15:30:35;100481.66;;;1.34;100.00
75298;BME280;63896;45.990;18.688;2023-12-20T15:33:39;100481.91;;;1.23;100.00
75298;BME280;63896;45.990;18.688;2023-12-20T15:36:42;100492.81;;;1.18;100.00
75298;BME280;63896;45.990;18.688;2023-12-20T15:39:46;100501.22;;;1.12;100.00
75298;BME280;63896;45.990;18.688;2023-12-20T15:42:48;100508.03;;;1.05;100.00
75298;BME280;63896;45.990;18.688;2023-12-20T15:45:51;100509.38;;;1.09;100.00